sensor_id;sensor_type;location;lat;lon;timestamp;P1;durP1;ratioP1;P2;durP2;ratioP2
51146;SDS011;37207;53.060;18.726;2022-09-09T00:02:15;13.10;;;4.90;;
51146;SDS011;37207;53.060;18.726;2022-09-09T00:07:37;6.10;;;4.30;;
51146;SDS011;37207;53.060;18.726;2022-09-09T00:16:34;5.50;;;5.00;;
51146;SDS011;37207;53.060;18.726;2022-09-09T00:19:02;5.20;;;4.60;;
51146;SDS011;37207;53.060;18.726;2022-09-09T00:21:56;7.50;;;5.30;;
51146;SDS011;37207;53.060;18.726;2022-09-09T00:24:48;12.90;;;6.10;;
51146;SDS011;37207;53.060;18.726;2022-09-09T00:30:26;6.00;;;5.50;;
51146;SDS011;37207;53.060;18.726;2022-09-09T00:32:59;6.30;;;5.10;;
51146;SDS011;37207;53.060;18.726;2022-09-09T00:38:08;6.90;;;5.40;;
51146;SDS011;37207;53.060;18.726;2022-09-09T00:40:49;6.30;;;5.70;;
51146;SDS011;37207;53.060;18.726;2022-09-09T00:43:27;6.10;;;5.30;;
51146;SDS011;37207;53.060;18.726;2022-09-09T00:59:36;6.00;;;5.60;;
51146;SDS011;37207;53.060;18.726;2022-09-09T01:08:00;5.60;;;4.60;;
51146;SDS011;37207;53.060;18.726;2022-09-09T01:13:23;5.50;;;4.90;;
51146;SDS011;37207;53.060;18.726;2022-09-09T01:15:54;7.10;;;5.20;;
51146;SDS011;37207;53.060;18.726;2022-09-09T01:18:21;6.20;;;5.10;;
51146;SDS011;37207;53.060;18.726;2022-09-09T01:21:04;5.10;;;4.60;;
51146;SDS011;37207;53.060;18.726;2022-09-09T01:24:09;5.30;;;4.80;;
51146;SDS011;37207;53.060;18.726;2022-09-09T01:27:00;9.20;;;4.70;;
51146;SDS011;37207;53.060;18.726;2022-09-09T01:29:30;5.40;;;4.30;;
51146;SDS011;37207;53.060;18.726;2022-09-09T01:31:59;8.90;;;4.40;;
51146;SDS011;37207;53.060;18.726;2022-09-09T01:34:33;5.20;;;4.80;;
51146;SDS011;37207;53.060;18.726;2022-09-09T01:37:05;5.00;;;4.50;;
51146;SDS011;37207;53.060;18.726;2022-09-09T01:39:37;5.00;;;4.50;;
51146;SDS011;37207;53.060;18.726;2022-09-09T01:42:13;4.70;;;4.30;;
51146;SDS011;37207;53.060;18.726;2022-09-09T01:44:43;5.50;;;4.30;;
51146;SDS011;37207;53.060;18.726;2022-09-09T01:47:10;5.40;;;4.60;;
51146;SDS011;37207;53.060;18.726;2022-09-09T01:50:03;4.70;;;4.20;;
51146;SDS011;37207;53.060;18.726;2022-09-09T01:55:05;8.70;;;4.20;;
51146;SDS011;37207;53.060;18.726;2022-09-09T02:00:24;7.30;;;4.20;;
51146;SDS011;37207;53.060;18.726;2022-09-09T02:05:36;9.90;;;4.50;;
51146;SDS011;37207;53.060;18.726;2022-09-09T02:08:20;5.10;;;4.60;;
51146;SDS011;37207;53.060;18.726;2022-09-09T02:11:02;8.10;;;4.10;;
51146;SDS011;37207;53.060;18.726;2022-09-09T02:13:47;5.70;;;4.40;;
51146;SDS011;37207;53.060;18.726;2022-09-09T02:16:21;5.50;;;4.60;;
51146;SDS011;37207;53.060;18.726;2022-09-09T02:19:08;9.30;;;4.20;;
51146;SDS011;37207;53.060;18.726;2022-09-09T02:21:57;8.40;;;4.80;;
51146;SDS011;37207;53.060;18.726;2022-09-09T02:24:32;6.70;;;6.10;;
51146;SDS011;37207;53.060;18.726;2022-09-09T02:27:12;5.90;;;5.40;;
51146;SDS011;37207;53.060;18.726;2022-09-09T02:29:43;5.50;;;4.90;;
51146;SDS011;37207;53.060;18.726;2022-09-09T02:32:16;5.10;;;4.60;;
51146;SDS011;37207;53.060;18.726;2022-09-09T02:34:50;7.70;;;5.00;;
51146;SDS011;37207;53.060;18.726;2022-09-09T02:37:22;5.70;;;4.60;;
51146;SDS011;37207;53.060;18.726;2022-09-09T02:39:55;6.10;;;4.90;;
51146;SDS011;37207;53.060;18.726;2022-09-09T02:42:22;6.10;;;3.80;;
51146;SDS011;37207;53.060;18.726;2022-09-09T02:44:53;4.40;;;4.10;;
51146;SDS011;37207;53.060;18.726;2022-09-09T02:47:31;7.00;;;4.70;;
51146;SDS011;37207;53.060;18.726;2022-09-09T02:50:25;5.70;;;4.90;;
51146;SDS011;37207;53.060;18.726;2022-09-09T02:55:39;5.10;;;4.70;;
51146;SDS011;37207;53.060;18.726;2022-09-09T02:58:13;7.10;;;5.10;;
51146;SDS011;37207;53.060;18.726;2022-09-09T03:00:45;6.30;;;4.60;;
51146;SDS011;37207;53.060;18.726;2022-09-09T03:03:15;5.50;;;4.90;;
51146;SDS011;37207;53.060;18.726;2022-09-09T03:05:44;4.80;;;4.40;;
51146;SDS011;37207;53.060;18.726;2022-09-09T03:08:12;5.30;;;4.80;;
51146;SDS011;37207;53.060;18.726;2022-09-09T03:10:42;8.70;;;4.80;;
51146;SDS011;37207;53.060;18.726;2022-09-09T03:13:10;6.60;;;5.00;;
51146;SDS011;37207;53.060;18.726;2022-09-09T03:15:39;5.40;;;4.90;;
51146;SDS011;37207;53.060;18.726;2022-09-09T03:18:11;11.90;;;4.90;;
51146;SDS011;37207;53.060;18.726;2022-09-09T03:20:38;6.10;;;4.60;;
51146;SDS011;37207;53.060;18.726;2022-09-09T03:23:05;6.50;;;5.50;;
51146;SDS011;37207;53.060;18.726;2022-09-09T03:25:32;5.60;;;5.20;;
51146;SDS011;37207;53.060;18.726;2022-09-09T03:28:00;6.30;;;5.80;;
51146;SDS011;37207;53.060;18.726;2022-09-09T03:30:28;6.30;;;5.10;;
51146;SDS011;37207;53.060;18.726;2022-09-09T03:32:56;6.10;;;5.30;;
51146;SDS011;37207;53.060;18.726;2022-09-09T03:35:26;6.50;;;5.50;;
51146;SDS011;37207;53.060;18.726;2022-09-09T03:37:53;14.70;;;6.10;;
51146;SDS011;37207;53.060;18.726;2022-09-09T03:40:22;9.10;;;5.00;;
51146;SDS011;37207;53.060;18.726;2022-09-09T03:42:49;5.90;;;5.10;;
51146;SDS011;37207;53.060;18.726;2022-09-09T03:45:17;7.90;;;5.70;;
51146;SDS011;37207;53.060;18.726;2022-09-09T03:47:44;6.30;;;5.70;;
51146;SDS011;37207;53.060;18.726;2022-09-09T03:50:12;6.10;;;5.50;;
51146;SDS011;37207;53.060;18.726;2022-09-09T03:52:43;7.30;;;5.70;;
51146;SDS011;37207;53.060;18.726;2022-09-09T03:55:16;7.00;;;5.50;;
51146;SDS011;37207;53.060;18.726;2022-09-09T03:57:43;6.40;;;5.80;;
51146;SDS011;37207;53.060;18.726;2022-09-09T04:00:10;7.90;;;5.40;;
51146;SDS011;37207;53.060;18.726;2022-09-09T04:02:45;6.40;;;5.00;;
51146;SDS011;37207;53.060;18.726;2022-09-09T04:07:42;7.90;;;5.90;;
51146;SDS011;37207;53.060;18.726;2022-09-09T04:10:10;6.40;;;5.40;;
51146;SDS011;37207;53.060;18.726;2022-09-09T04:12:38;8.00;;;6.00;;
51146;SDS011;37207;53.060;18.726;2022-09-09T04:15:06;7.90;;;6.00;;
51146;SDS011;37207;53.060;18.726;2022-09-09T04:17:34;7.00;;;5.80;;
51146;SDS011;37207;53.060;18.726;2022-09-09T04:20:03;6.70;;;5.90;;
51146;SDS011;37207;53.060;18.726;2022-09-09T04:22:30;8.90;;;6.10;;
51146;SDS011;37207;53.060;18.726;2022-09-09T04:24:58;8.00;;;6.30;;
51146;SDS011;37207;53.060;18.726;2022-09-09T04:27:26;7.20;;;6.30;;
51146;SDS011;37207;53.060;18.726;2022-09-09T04:29:54;7.00;;;6.10;;
51146;SDS011;37207;53.060;18.726;2022-09-09T04:32:22;8.40;;;5.80;;
51146;SDS011;37207;53.060;18.726;2022-09-09T04:34:50;7.40;;;6.70;;
51146;SDS011;37207;53.060;18.726;2022-09-09T04:37:17;7.60;;;6.50;;
51146;SDS011;37207;53.060;18.726;2022-09-09T04:39:44;8.00;;;7.20;;
51146;SDS011;37207;53.060;18.726;2022-09-09T04:42:14;9.70;;;7.70;;
51146;SDS011;37207;53.060;18.726;2022-09-09T04:44:43;8.40;;;7.60;;
51146;SDS011;37207;53.060;18.726;2022-09-09T04:47:11;8.70;;;7.90;;
51146;SDS011;37207;53.060;18.726;2022-09-09T04:49:38;9.50;;;7.70;;
51146;SDS011;37207;53.060;18.726;2022-09-09T04:52:06;10.20;;;7.90;;
51146;SDS011;37207;53.060;18.726;2022-09-09T04:54:34;8.40;;;7.70;;
51146;SDS011;37207;53.060;18.726;2022-09-09T04:57:01;8.10;;;7.40;;
51146;SDS011;37207;53.060;18.726;2022-09-09T04:59:29;8.40;;;7.60;;
51146;SDS011;37207;53.060;18.726;2022-09-09T05:01:57;8.40;;;7.40;;
51146;SDS011;37207;53.060;18.726;2022-09-09T05:04:24;8.60;;;7.80;;
51146;SDS011;37207;53.060;18.726;2022-09-09T05:06:52;8.20;;;7.50;;
51146;SDS011;37207;53.060;18.726;2022-09-09T05:09:19;9.30;;;8.10;;
51146;SDS011;37207;53.060;18.726;2022-09-09T05:11:46;13.10;;;7.30;;
51146;SDS011;37207;53.060;18.726;2022-09-09T05:14:28;8.90;;;8.20;;
51146;SDS011;37207;53.060;18.726;2022-09-09T05:16:56;8.20;;;7.60;;
51146;SDS011;37207;53.060;18.726;2022-09-09T05:19:24;9.30;;;7.90;;
51146;SDS011;37207;53.060;18.726;2022-09-09T05:21:52;9.40;;;7.70;;
51146;SDS011;37207;53.060;18.726;2022-09-09T05:24:24;8.80;;;8.00;;
51146;SDS011;37207;53.060;18.726;2022-09-09T05:26:55;12.70;;;8.60;;
51146;SDS011;37207;53.060;18.726;2022-09-09T05:29:26;12.40;;;8.40;;
51146;SDS011;37207;53.060;18.726;2022-09-09T05:31:53;12.60;;;7.90;;
51146;SDS011;37207;53.060;18.726;2022-09-09T05:34:21;10.50;;;8.40;;
51146;SDS011;37207;53.060;18.726;2022-09-09T05:36:49;8.80;;;8.00;;
51146;SDS011;37207;53.060;18.726;2022-09-09T05:39:17;7.90;;;7.30;;
51146;SDS011;37207;53.060;18.726;2022-09-09T05:41:45;9.40;;;8.60;;
51146;SDS011;37207;53.060;18.726;2022-09-09T05:44:12;10.20;;;9.00;;
51146;SDS011;37207;53.060;18.726;2022-09-09T05:46:40;8.40;;;7.80;;
51146;SDS011;37207;53.060;18.726;2022-09-09T05:49:07;11.90;;;8.70;;
51146;SDS011;37207;53.060;18.726;2022-09-09T05:51:34;12.90;;;9.10;;
51146;SDS011;37207;53.060;18.726;2022-09-09T05:54:09;10.20;;;8.00;;
51146;SDS011;37207;53.060;18.726;2022-09-09T05:56:39;12.90;;;10.30;;
51146;SDS011;37207;53.060;18.726;2022-09-09T05:59:07;13.50;;;9.40;;
51146;SDS011;37207;53.060;18.726;2022-09-09T06:01:36;13.00;;;9.40;;
51146;SDS011;37207;53.060;18.726;2022-09-09T06:04:07;10.00;;;9.20;;
51146;SDS011;37207;53.060;18.726;2022-09-09T06:06:36;10.40;;;9.40;;
51146;SDS011;37207;53.060;18.726;2022-09-09T06:09:14;10.20;;;9.20;;
51146;SDS011;37207;53.060;18.726;2022-09-09T06:11:43;12.30;;;9.20;;
51146;SDS011;37207;53.060;18.726;2022-09-09T06:14:11;15.50;;;9.40;;
51146;SDS011;37207;53.060;18.726;2022-09-09T06:16:39;10.70;;;9.80;;
51146;SDS011;37207;53.060;18.726;2022-09-09T06:19:19;11.40;;;9.40;;
51146;SDS011;37207;53.060;18.726;2022-09-09T06:21:47;14.40;;;9.20;;
51146;SDS011;37207;53.060;18.726;2022-09-09T06:24:16;14.10;;;10.10;;
51146;SDS011;37207;53.060;18.726;2022-09-09T06:26:45;14.60;;;9.70;;
51146;SDS011;37207;53.060;18.726;2022-09-09T06:29:17;12.50;;;10.10;;
51146;SDS011;37207;53.060;18.726;2022-09-09T06:31:45;11.10;;;9.60;;
51146;SDS011;37207;53.060;18.726;2022-09-09T06:34:21;11.60;;;10.10;;
51146;SDS011;37207;53.060;18.726;2022-09-09T06:36:51;12.70;;;9.80;;
51146;SDS011;37207;53.060;18.726;2022-09-09T06:39:18;13.00;;;10.40;;
51146;SDS011;37207;53.060;18.726;2022-09-09T06:41:46;13.40;;;10.60;;
51146;SDS011;37207;53.060;18.726;2022-09-09T06:44:32;11.80;;;10.60;;
51146;SDS011;37207;53.060;18.726;2022-09-09T06:47:00;13.90;;;10.70;;
51146;SDS011;37207;53.060;18.726;2022-09-09T06:49:27;12.50;;;11.30;;
51146;SDS011;37207;53.060;18.726;2022-09-09T06:51:55;13.10;;;11.40;;
51146;SDS011;37207;53.060;18.726;2022-09-09T06:54:22;19.60;;;12.40;;
51146;SDS011;37207;53.060;18.726;2022-09-09T06:56:52;16.90;;;11.90;;
51146;SDS011;37207;53.060;18.726;2022-09-09T06:59:23;16.50;;;12.10;;
51146;SDS011;37207;53.060;18.726;2022-09-09T07:01:52;18.00;;;12.10;;
51146;SDS011;37207;53.060;18.726;2022-09-09T07:04:21;15.30;;;13.00;;
51146;SDS011;37207;53.060;18.726;2022-09-09T07:06:49;17.00;;;12.60;;
51146;SDS011;37207;53.060;18.726;2022-09-09T07:09:20;15.70;;;11.90;;
51146;SDS011;37207;53.060;18.726;2022-09-09T07:11:50;13.70;;;11.40;;
51146;SDS011;37207;53.060;18.726;2022-09-09T07:14:20;24.10;;;12.80;;
51146;SDS011;37207;53.060;18.726;2022-09-09T07:16:56;17.90;;;12.70;;
51146;SDS011;37207;53.060;18.726;2022-09-09T07:19:24;15.20;;;12.30;;
51146;SDS011;37207;53.060;18.726;2022-09-09T07:21:52;14.00;;;12.30;;
51146;SDS011;37207;53.060;18.726;2022-09-09T07:24:20;18.60;;;13.80;;
51146;SDS011;37207;53.060;18.726;2022-09-09T07:26:47;17.90;;;13.00;;
51146;SDS011;37207;53.060;18.726;2022-09-09T07:29:15;15.00;;;11.90;;
51146;SDS011;37207;53.060;18.726;2022-09-09T07:31:42;18.40;;;13.60;;
51146;SDS011;37207;53.060;18.726;2022-09-09T07:34:13;16.80;;;12.60;;
51146;SDS011;37207;53.060;18.726;2022-09-09T07:36:40;16.70;;;12.70;;
51146;SDS011;37207;53.060;18.726;2022-09-09T07:39:11;16.30;;;13.40;;
51146;SDS011;37207;53.060;18.726;2022-09-09T07:41:45;23.80;;;14.30;;
51146;SDS011;37207;53.060;18.726;2022-09-09T07:44:15;23.00;;;14.50;;
51146;SDS011;37207;53.060;18.726;2022-09-09T07:46:46;19.90;;;14.40;;
51146;SDS011;37207;53.060;18.726;2022-09-09T07:49:17;21.20;;;13.70;;
51146;SDS011;37207;53.060;18.726;2022-09-09T07:51:46;20.30;;;13.70;;
51146;SDS011;37207;53.060;18.726;2022-09-09T07:54:16;20.70;;;13.60;;
51146;SDS011;37207;53.060;18.726;2022-09-09T07:56:50;25.20;;;15.40;;
51146;SDS011;37207;53.060;18.726;2022-09-09T07:59:18;18.10;;;15.10;;
51146;SDS011;37207;53.060;18.726;2022-09-09T08:04:19;29.80;;;17.20;;
51146;SDS011;37207;53.060;18.726;2022-09-09T08:06:48;24.00;;;16.20;;
51146;SDS011;37207;53.060;18.726;2022-09-09T08:09:20;26.50;;;16.10;;
51146;SDS011;37207;53.060;18.726;2022-09-09T08:11:51;24.10;;;16.50;;
51146;SDS011;37207;53.060;18.726;2022-09-09T08:14:18;31.40;;;16.30;;
51146;SDS011;37207;53.060;18.726;2022-09-09T08:16:47;26.40;;;17.30;;
51146;SDS011;37207;53.060;18.726;2022-09-09T08:19:17;40.40;;;22.40;;
51146;SDS011;37207;53.060;18.726;2022-09-09T08:21:45;29.00;;;19.80;;
51146;SDS011;37207;53.060;18.726;2022-09-09T08:24:15;22.80;;;17.60;;
51146;SDS011;37207;53.060;18.726;2022-09-09T08:26:47;34.50;;;20.50;;
51146;SDS011;37207;53.060;18.726;2022-09-09T08:29:16;33.00;;;20.50;;
51146;SDS011;37207;53.060;18.726;2022-09-09T08:31:45;37.30;;;20.30;;
51146;SDS011;37207;53.060;18.726;2022-09-09T08:34:20;36.30;;;19.50;;
51146;SDS011;37207;53.060;18.726;2022-09-09T08:36:49;32.80;;;17.70;;
51146;SDS011;37207;53.060;18.726;2022-09-09T08:39:19;25.80;;;17.10;;
51146;SDS011;37207;53.060;18.726;2022-09-09T08:50:37;27.70;;;18.30;;
51146;SDS011;37207;53.060;18.726;2022-09-09T08:53:00;31.40;;;19.40;;
51146;SDS011;37207;53.060;18.726;2022-09-09T08:55:50;32.90;;;18.40;;
51146;SDS011;37207;53.060;18.726;2022-09-09T09:06:45;34.30;;;19.50;;
51146;SDS011;37207;53.060;18.726;2022-09-09T09:12:53;28.90;;;20.30;;
51146;SDS011;37207;53.060;18.726;2022-09-09T09:15:33;32.40;;;20.30;;
51146;SDS011;37207;53.060;18.726;2022-09-09T09:18:05;30.50;;;20.10;;
51146;SDS011;37207;53.060;18.726;2022-09-09T09:23:43;36.10;;;20.80;;
51146;SDS011;37207;53.060;18.726;2022-09-09T09:26:15;33.00;;;18.80;;
51146;SDS011;37207;53.060;18.726;2022-09-09T09:28:43;28.10;;;19.10;;
51146;SDS011;37207;53.060;18.726;2022-09-09T09:31:17;25.70;;;19.20;;
51146;SDS011;37207;53.060;18.726;2022-09-09T09:33:49;31.60;;;19.80;;
51146;SDS011;37207;53.060;18.726;2022-09-09T09:36:23;29.30;;;21.50;;
51146;SDS011;37207;53.060;18.726;2022-09-09T09:39:02;32.50;;;22.10;;
51146;SDS011;37207;53.060;18.726;2022-09-09T09:41:35;38.10;;;21.60;;
51146;SDS011;37207;53.060;18.726;2022-09-09T09:44:18;31.90;;;22.20;;
51146;SDS011;37207;53.060;18.726;2022-09-09T09:46:50;34.20;;;22.70;;
51146;SDS011;37207;53.060;18.726;2022-09-09T09:49:17;32.30;;;21.50;;
51146;SDS011;37207;53.060;18.726;2022-09-09T09:51:45;37.70;;;23.40;;
51146;SDS011;37207;53.060;18.726;2022-09-09T09:56:48;35.60;;;21.60;;
51146;SDS011;37207;53.060;18.726;2022-09-09T09:59:34;37.90;;;23.10;;
51146;SDS011;37207;53.060;18.726;2022-09-09T10:02:22;41.60;;;23.10;;
51146;SDS011;37207;53.060;18.726;2022-09-09T10:05:02;38.20;;;23.20;;
51146;SDS011;37207;53.060;18.726;2022-09-09T10:07:33;39.60;;;23.10;;
51146;SDS011;37207;53.060;18.726;2022-09-09T10:10:00;40.50;;;25.00;;
51146;SDS011;37207;53.060;18.726;2022-09-09T10:12:33;34.30;;;22.50;;
51146;SDS011;37207;53.060;18.726;2022-09-09T10:32:22;40.30;;;23.50;;
51146;SDS011;37207;53.060;18.726;2022-09-09T10:43:34;41.90;;;25.50;;
51146;SDS011;37207;53.060;18.726;2022-09-09T10:46:26;43.30;;;24.40;;
51146;SDS011;37207;53.060;18.726;2022-09-09T10:57:50;41.80;;;24.80;;
51146;SDS011;37207;53.060;18.726;2022-09-09T11:00:19;52.20;;;24.80;;
51146;SDS011;37207;53.060;18.726;2022-09-09T11:03:02;37.80;;;22.60;;
51146;SDS011;37207;53.060;18.726;2022-09-09T11:05:33;44.00;;;25.70;;
51146;SDS011;37207;53.060;18.726;2022-09-09T11:08:13;39.40;;;22.80;;
51146;SDS011;37207;53.060;18.726;2022-09-09T11:16:15;37.10;;;22.40;;
51146;SDS011;37207;53.060;18.726;2022-09-09T11:21:50;43.10;;;25.60;;
51146;SDS011;37207;53.060;18.726;2022-09-09T11:24:31;46.50;;;25.90;;
51146;SDS011;37207;53.060;18.726;2022-09-09T11:30:02;42.10;;;23.20;;
51146;SDS011;37207;53.060;18.726;2022-09-09T11:38:23;36.40;;;22.30;;
51146;SDS011;37207;53.060;18.726;2022-09-09T11:41:19;35.70;;;21.10;;
51146;SDS011;37207;53.060;18.726;2022-09-09T11:43:51;35.70;;;21.90;;
51146;SDS011;37207;53.060;18.726;2022-09-09T11:46:20;34.90;;;22.70;;
51146;SDS011;37207;53.060;18.726;2022-09-09T11:49:03;37.00;;;22.90;;
51146;SDS011;37207;53.060;18.726;2022-09-09T11:51:36;44.60;;;24.40;;
51146;SDS011;37207;53.060;18.726;2022-09-09T11:57:01;33.30;;;21.70;;
51146;SDS011;37207;53.060;18.726;2022-09-09T11:59:31;33.90;;;23.30;;
51146;SDS011;37207;53.060;18.726;2022-09-09T12:02:01;35.50;;;21.70;;
51146;SDS011;37207;53.060;18.726;2022-09-09T12:04:31;35.30;;;22.90;;
51146;SDS011;37207;53.060;18.726;2022-09-09T12:09:41;36.00;;;23.70;;
51146;SDS011;37207;53.060;18.726;2022-09-09T12:12:40;35.10;;;23.10;;
51146;SDS011;37207;53.060;18.726;2022-09-09T12:17:44;34.10;;;23.50;;
51146;SDS011;37207;53.060;18.726;2022-09-09T12:20:31;27.70;;;20.90;;
51146;SDS011;37207;53.060;18.726;2022-09-09T12:23:15;28.20;;;19.30;;
51146;SDS011;37207;53.060;18.726;2022-09-09T12:25:58;36.00;;;20.10;;
51146;SDS011;37207;53.060;18.726;2022-09-09T12:28:49;25.50;;;20.00;;
51146;SDS011;37207;53.060;18.726;2022-09-09T12:34:10;30.10;;;21.10;;
51146;SDS011;37207;53.060;18.726;2022-09-09T12:36:38;29.50;;;20.40;;
51146;SDS011;37207;53.060;18.726;2022-09-09T12:39:15;27.30;;;20.50;;
51146;SDS011;37207;53.060;18.726;2022-09-09T12:41:52;24.00;;;20.10;;
51146;SDS011;37207;53.060;18.726;2022-09-09T12:44:24;26.90;;;18.40;;
51146;SDS011;37207;53.060;18.726;2022-09-09T12:46:54;24.60;;;17.80;;
51146;SDS011;37207;53.060;18.726;2022-09-09T12:51:54;28.00;;;18.90;;
51146;SDS011;37207;53.060;18.726;2022-09-09T12:54:23;31.60;;;18.60;;
51146;SDS011;37207;53.060;18.726;2022-09-09T12:56:51;27.50;;;18.30;;
51146;SDS011;37207;53.060;18.726;2022-09-09T12:59:23;23.20;;;17.80;;
51146;SDS011;37207;53.060;18.726;2022-09-09T13:01:56;26.20;;;18.90;;
51146;SDS011;37207;53.060;18.726;2022-09-09T13:04:27;24.20;;;17.80;;
51146;SDS011;37207;53.060;18.726;2022-09-09T13:07:06;25.90;;;17.90;;
51146;SDS011;37207;53.060;18.726;2022-09-09T13:09:36;27.00;;;19.00;;
51146;SDS011;37207;53.060;18.726;2022-09-09T13:12:04;32.30;;;19.40;;
51146;SDS011;37207;53.060;18.726;2022-09-09T13:14:35;21.30;;;17.70;;
51146;SDS011;37207;53.060;18.726;2022-09-09T13:17:06;27.30;;;18.00;;
51146;SDS011;37207;53.060;18.726;2022-09-09T13:19:44;31.70;;;17.10;;
51146;SDS011;37207;53.060;18.726;2022-09-09T13:22:14;30.00;;;18.00;;
51146;SDS011;37207;53.060;18.726;2022-09-09T13:24:47;25.60;;;16.80;;
51146;SDS011;37207;53.060;18.726;2022-09-09T13:27:29;23.40;;;15.90;;
51146;SDS011;37207;53.060;18.726;2022-09-09T13:29:57;24.80;;;17.40;;
51146;SDS011;37207;53.060;18.726;2022-09-09T13:32:24;18.70;;;16.70;;
51146;SDS011;37207;53.060;18.726;2022-09-09T13:34:59;24.40;;;18.00;;
51146;SDS011;37207;53.060;18.726;2022-09-09T13:40:05;22.60;;;16.10;;
51146;SDS011;37207;53.060;18.726;2022-09-09T13:42:34;17.20;;;15.40;;
51146;SDS011;37207;53.060;18.726;2022-09-09T13:45:19;24.70;;;15.60;;
51146;SDS011;37207;53.060;18.726;2022-09-09T13:55:44;18.60;;;15.20;;
51146;SDS011;37207;53.060;18.726;2022-09-09T13:58:14;15.30;;;13.70;;
51146;SDS011;37207;53.060;18.726;2022-09-09T14:00:49;17.60;;;14.70;;
51146;SDS011;37207;53.060;18.726;2022-09-09T14:03:16;21.00;;;15.70;;
51146;SDS011;37207;53.060;18.726;2022-09-09T14:05:44;22.50;;;15.00;;
51146;SDS011;37207;53.060;18.726;2022-09-09T14:08:15;20.00;;;17.20;;
51146;SDS011;37207;53.060;18.726;2022-09-09T14:10:48;20.50;;;14.80;;
51146;SDS011;37207;53.060;18.726;2022-09-09T14:13:15;30.90;;;14.80;;
51146;SDS011;37207;53.060;18.726;2022-09-09T14:15:42;21.20;;;15.20;;
51146;SDS011;37207;53.060;18.726;2022-09-09T14:18:10;16.90;;;15.40;;
51146;SDS011;37207;53.060;18.726;2022-09-09T14:20:42;21.50;;;16.50;;
51146;SDS011;37207;53.060;18.726;2022-09-09T14:23:10;17.60;;;15.20;;
51146;SDS011;37207;53.060;18.726;2022-09-09T14:25:40;18.10;;;14.70;;
51146;SDS011;37207;53.060;18.726;2022-09-09T14:28:11;39.20;;;16.00;;
51146;SDS011;37207;53.060;18.726;2022-09-09T14:30:40;18.70;;;15.10;;
51146;SDS011;37207;53.060;18.726;2022-09-09T14:33:09;15.80;;;14.40;;
51146;SDS011;37207;53.060;18.726;2022-09-09T14:35:38;17.40;;;15.00;;
51146;SDS011;37207;53.060;18.726;2022-09-09T14:38:08;18.60;;;15.10;;
51146;SDS011;37207;53.060;18.726;2022-09-09T14:40:36;15.40;;;14.10;;
51146;SDS011;37207;53.060;18.726;2022-09-09T14:43:04;15.60;;;14.20;;
51146;SDS011;37207;53.060;18.726;2022-09-09T14:45:32;16.20;;;14.70;;
51146;SDS011;37207;53.060;18.726;2022-09-09T14:48:11;16.10;;;14.80;;
51146;SDS011;37207;53.060;18.726;2022-09-09T14:50:39;18.20;;;16.30;;
51146;SDS011;37207;53.060;18.726;2022-09-09T14:53:07;18.10;;;16.30;;
51146;SDS011;37207;53.060;18.726;2022-09-09T14:55:36;20.40;;;17.70;;
51146;SDS011;37207;53.060;18.726;2022-09-09T14:58:04;18.90;;;16.30;;
51146;SDS011;37207;53.060;18.726;2022-09-09T15:00:32;17.60;;;16.00;;
51146;SDS011;37207;53.060;18.726;2022-09-09T15:03:01;19.70;;;17.40;;
51146;SDS011;37207;53.060;18.726;2022-09-09T15:05:28;23.50;;;16.70;;
51146;SDS011;37207;53.060;18.726;2022-09-09T15:07:58;20.30;;;16.50;;
51146;SDS011;37207;53.060;18.726;2022-09-09T15:10:26;23.50;;;18.40;;
51146;SDS011;37207;53.060;18.726;2022-09-09T15:12:53;20.90;;;18.70;;
51146;SDS011;37207;53.060;18.726;2022-09-09T15:15:20;26.10;;;17.50;;
51146;SDS011;37207;53.060;18.726;2022-09-09T15:17:47;18.20;;;16.40;;
51146;SDS011;37207;53.060;18.726;2022-09-09T15:20:15;21.30;;;17.10;;
51146;SDS011;37207;53.060;18.726;2022-09-09T15:22:43;17.30;;;15.50;;
51146;SDS011;37207;53.060;18.726;2022-09-09T15:25:11;24.20;;;17.60;;
51146;SDS011;37207;53.060;18.726;2022-09-09T15:27:39;20.40;;;17.90;;
51146;SDS011;37207;53.060;18.726;2022-09-09T15:30:07;21.80;;;18.50;;
51146;SDS011;37207;53.060;18.726;2022-09-09T15:32:34;20.80;;;18.50;;
51146;SDS011;37207;53.060;18.726;2022-09-09T15:35:01;23.50;;;18.70;;
51146;SDS011;37207;53.060;18.726;2022-09-09T15:37:29;24.40;;;19.30;;
51146;SDS011;37207;53.060;18.726;2022-09-09T15:39:56;23.80;;;19.60;;
51146;SDS011;37207;53.060;18.726;2022-09-09T15:42:25;22.80;;;18.60;;
51146;SDS011;37207;53.060;18.726;2022-09-09T15:44:52;20.20;;;18.00;;
51146;SDS011;37207;53.060;18.726;2022-09-09T15:47:19;23.00;;;18.70;;
51146;SDS011;37207;53.060;18.726;2022-09-09T15:49:46;21.40;;;18.30;;
51146;SDS011;37207;53.060;18.726;2022-09-09T15:52:15;38.60;;;20.80;;
51146;SDS011;37207;53.060;18.726;2022-09-09T15:54:42;27.10;;;21.70;;
51146;SDS011;37207;53.060;18.726;2022-09-09T15:57:10;26.60;;;20.80;;
51146;SDS011;37207;53.060;18.726;2022-09-09T15:59:40;26.80;;;21.90;;
51146;SDS011;37207;53.060;18.726;2022-09-09T16:02:08;24.10;;;18.00;;
51146;SDS011;37207;53.060;18.726;2022-09-09T16:04:35;20.30;;;18.10;;
51146;SDS011;37207;53.060;18.726;2022-09-09T16:07:03;27.50;;;19.40;;
51146;SDS011;37207;53.060;18.726;2022-09-09T16:09:38;31.10;;;21.10;;
51146;SDS011;37207;53.060;18.726;2022-09-09T16:12:06;21.60;;;19.40;;
51146;SDS011;37207;53.060;18.726;2022-09-09T16:14:34;29.60;;;18.70;;
51146;SDS011;37207;53.060;18.726;2022-09-09T16:17:08;22.20;;;18.60;;
51146;SDS011;37207;53.060;18.726;2022-09-09T16:19:36;21.80;;;17.50;;
51146;SDS011;37207;53.060;18.726;2022-09-09T16:22:03;32.30;;;18.30;;
51146;SDS011;37207;53.060;18.726;2022-09-09T16:24:47;19.20;;;17.20;;
51146;SDS011;37207;53.060;18.726;2022-09-09T16:27:17;19.80;;;17.70;;
51146;SDS011;37207;53.060;18.726;2022-09-09T16:29:44;19.00;;;17.20;;
51146;SDS011;37207;53.060;18.726;2022-09-09T16:32:12;23.10;;;17.00;;
51146;SDS011;37207;53.060;18.726;2022-09-09T16:41:04;18.80;;;16.90;;
51146;SDS011;37207;53.060;18.726;2022-09-09T16:43:35;19.60;;;16.50;;
51146;SDS011;37207;53.060;18.726;2022-09-09T16:49:32;19.80;;;17.10;;
51146;SDS011;37207;53.060;18.726;2022-09-09T16:54:28;18.90;;;15.00;;
51146;SDS011;37207;53.060;18.726;2022-09-09T16:56:57;18.70;;;16.60;;
51146;SDS011;37207;53.060;18.726;2022-09-09T17:18:10;17.50;;;15.60;;
51146;SDS011;37207;53.060;18.726;2022-09-09T17:20:53;20.10;;;17.80;;
51146;SDS011;37207;53.060;18.726;2022-09-09T17:23:22;22.50;;;19.00;;
51146;SDS011;37207;53.060;18.726;2022-09-09T17:25:56;25.10;;;18.40;;
51146;SDS011;37207;53.060;18.726;2022-09-09T17:28:36;22.00;;;18.60;;
51146;SDS011;37207;53.060;18.726;2022-09-09T17:31:27;22.40;;;18.90;;
51146;SDS011;37207;53.060;18.726;2022-09-09T17:36:37;23.90;;;17.80;;
51146;SDS011;37207;53.060;18.726;2022-09-09T17:39:07;23.40;;;17.60;;
51146;SDS011;37207;53.060;18.726;2022-09-09T17:41:47;21.20;;;19.00;;
51146;SDS011;37207;53.060;18.726;2022-09-09T17:44:23;27.50;;;19.30;;
51146;SDS011;37207;53.060;18.726;2022-09-09T17:46:53;32.50;;;20.30;;
51146;SDS011;37207;53.060;18.726;2022-09-09T17:49:23;28.90;;;20.00;;
51146;SDS011;37207;53.060;18.726;2022-09-09T17:52:05;26.70;;;18.70;;
51146;SDS011;37207;53.060;18.726;2022-09-09T17:54:39;30.90;;;19.90;;